NCAR-RAP Real-Time Weather Data

Output produced by METARs form (06 May 2021  14:54 UTC)
found at http://weather.rap.ucar.edu/surface/
 
KUKI 061356Z AUTO 00000KT 10SM CLR 09/03 A3002 RMK AO2 SLP157 T00890033
KUKI 061256Z AUTO 00000KT 10SM CLR 08/03 A3000 RMK AO2 SLP153 T00830033
KUKI 061156Z AUTO 00000KT 10SM CLR 09/03 A2999 RMK AO2 SLP150 T00890033 10161 20089 50003
KUKI 061056Z AUTO 00000KT 10SM CLR 09/03 A3000 RMK AO2 SLP150 T00940033
KUKI 060956Z AUTO 00000KT 10SM CLR 10/04 A2999 RMK AO2 SLP148 T01000039
KUKI 060856Z AUTO 00000KT 10SM CLR 12/04 A2999 RMK AO2 SLP146 T01170044 51009
KUKI 060756Z AUTO 00000KT 10SM CLR 13/04 A2998 RMK AO2 SLP145 T01330039 403390094
KUKI 060656Z AUTO 00000KT 10SM CLR 14/06 A2997 RMK AO2 SLP142 T01390061
KUKI 060556Z AUTO 00000KT 10SM CLR 16/07 A2996 RMK AO2 SLP138 T01610067 10311 20156 51026
KUKI 060456Z AUTO 00000KT 10SM CLR 17/07 A2994 RMK AO2 SLP133 T01720072
KUKI 060356Z AUTO 23003KT 10SM CLR 21/07 A2991 RMK AO2 SLP123 T02060067
KUKI 060256Z AUTO 01008KT 10SM CLR 23/07 A2988 RMK AO2 SLP111 T02330067 53016
KUKI 060156Z AUTO VRB03KT 10SM CLR 27/08 A2986 RMK AO2 SLP103 T02720078